sensor_id;sensor_type;location;lat;lon;timestamp;P1;durP1;ratioP1;P2;durP2;ratioP2
7233;SDS011;3658;47.992;10.158;2023-03-01T00:01:10;7.20;;;3.80;;
7233;SDS011;3658;47.992;10.158;2023-03-01T00:03:38;4.00;;;3.60;;
7233;SDS011;3658;47.992;10.158;2023-03-01T00:06:06;4.27;;;3.50;;
7233;SDS011;3658;47.992;10.158;2023-03-01T00:08:33;4.00;;;3.43;;
7233;SDS011;3658;47.992;10.158;2023-03-01T00:11:02;4.33;;;3.93;;
7233;SDS011;3658;47.992;10.158;2023-03-01T00:13:30;4.50;;;3.50;;
7233;SDS011;3658;47.992;10.158;2023-03-01T00:15:57;4.70;;;3.57;;
7233;SDS011;3658;47.992;10.158;2023-03-01T00:18:24;4.20;;;3.43;;
7233;SDS011;3658;47.992;10.158;2023-03-01T00:20:51;4.17;;;3.73;;
7233;SDS011;3658;47.992;10.158;2023-03-01T00:23:20;5.43;;;3.50;;
7233;SDS011;3658;47.992;10.158;2023-03-01T00:25:47;3.70;;;3.40;;
7233;SDS011;3658;47.992;10.158;2023-03-01T00:28:15;4.43;;;3.57;;
7233;SDS011;3658;47.992;10.158;2023-03-01T00:30:43;3.80;;;3.40;;
7233;SDS011;3658;47.992;10.158;2023-03-01T00:33:10;4.07;;;3.27;;
7233;SDS011;3658;47.992;10.158;2023-03-01T00:35:37;4.73;;;3.50;;
7233;SDS011;3658;47.992;10.158;2023-03-01T00:38:04;4.30;;;3.53;;
7233;SDS011;3658;47.992;10.158;2023-03-01T00:40:32;4.27;;;3.87;;
7233;SDS011;3658;47.992;10.158;2023-03-01T00:43:00;3.63;;;3.33;;
7233;SDS011;3658;47.992;10.158;2023-03-01T00:45:30;4.53;;;3.27;;
7233;SDS011;3658;47.992;10.158;2023-03-01T00:47:57;4.53;;;3.40;;
7233;SDS011;3658;47.992;10.158;2023-03-01T00:50:24;3.97;;;3.50;;
7233;SDS011;3658;47.992;10.158;2023-03-01T00:52:52;4.30;;;3.70;;
7233;SDS011;3658;47.992;10.158;2023-03-01T00:55:19;3.90;;;3.50;;
7233;SDS011;3658;47.992;10.158;2023-03-01T00:57:46;4.07;;;3.20;;
7233;SDS011;3658;47.992;10.158;2023-03-01T01:00:13;3.90;;;3.57;;
7233;SDS011;3658;47.992;10.158;2023-03-01T01:02:42;4.20;;;3.33;;
7233;SDS011;3658;47.992;10.158;2023-03-01T01:05:09;3.77;;;3.43;;
7233;SDS011;3658;47.992;10.158;2023-03-01T01:07:36;3.57;;;3.03;;
7233;SDS011;3658;47.992;10.158;2023-03-01T01:10:04;4.07;;;3.67;;
7233;SDS011;3658;47.992;10.158;2023-03-01T01:12:32;6.17;;;3.53;;
7233;SDS011;3658;47.992;10.158;2023-03-01T01:14:59;3.40;;;3.10;;
7233;SDS011;3658;47.992;10.158;2023-03-01T01:17:26;3.87;;;3.47;;
7233;SDS011;3658;47.992;10.158;2023-03-01T01:19:54;3.70;;;3.40;;
7233;SDS011;3658;47.992;10.158;2023-03-01T01:22:21;3.83;;;3.40;;
7233;SDS011;3658;47.992;10.158;2023-03-01T01:24:48;3.90;;;3.60;;
7233;SDS011;3658;47.992;10.158;2023-03-01T01:27:15;4.07;;;3.30;;
7233;SDS011;3658;47.992;10.158;2023-03-01T01:29:42;3.73;;;3.43;;
7233;SDS011;3658;47.992;10.158;2023-03-01T01:32:09;3.60;;;3.30;;
7233;SDS011;3658;47.992;10.158;2023-03-01T01:34:36;3.97;;;3.40;;
7233;SDS011;3658;47.992;10.158;2023-03-01T01:37:04;4.20;;;3.57;;
7233;SDS011;3658;47.992;10.158;2023-03-01T01:39:32;3.90;;;3.50;;
7233;SDS011;3658;47.992;10.158;2023-03-01T01:42:00;4.20;;;3.80;;
7233;SDS011;3658;47.992;10.158;2023-03-01T01:44:27;4.70;;;4.00;;
7233;SDS011;3658;47.992;10.158;2023-03-01T01:46:56;3.50;;;3.20;;
7233;SDS011;3658;47.992;10.158;2023-03-01T01:49:27;4.73;;;3.47;;
7233;SDS011;3658;47.992;10.158;2023-03-01T01:52:00;4.13;;;3.50;;
7233;SDS011;3658;47.992;10.158;2023-03-01T01:54:37;3.97;;;3.57;;
7233;SDS011;3658;47.992;10.158;2023-03-01T01:57:09;3.70;;;3.40;;
7233;SDS011;3658;47.992;10.158;2023-03-01T01:59:40;3.90;;;3.60;;
7233;SDS011;3658;47.992;10.158;2023-03-01T02:02:11;4.27;;;3.80;;
7233;SDS011;3658;47.992;10.158;2023-03-01T02:04:39;4.03;;;3.40;;
7233;SDS011;3658;47.992;10.158;2023-03-01T02:07:09;4.83;;;3.77;;
7233;SDS011;3658;47.992;10.158;2023-03-01T02:09:41;3.60;;;3.30;;
7233;SDS011;3658;47.992;10.158;2023-03-01T02:12:11;4.07;;;3.50;;
7233;SDS011;3658;47.992;10.158;2023-03-01T02:14:40;3.90;;;3.60;;
7233;SDS011;3658;47.992;10.158;2023-03-01T02:17:07;4.13;;;3.33;;
7233;SDS011;3658;47.992;10.158;2023-03-01T02:19:39;4.83;;;3.57;;
7233;SDS011;3658;47.992;10.158;2023-03-01T02:22:17;3.93;;;3.53;;
7233;SDS011;3658;47.992;10.158;2023-03-01T02:24:51;3.70;;;3.40;;
7233;SDS011;3658;47.992;10.158;2023-03-01T02:27:30;4.10;;;3.63;;
7233;SDS011;3658;47.992;10.158;2023-03-01T02:30:03;4.23;;;3.40;;
7233;SDS011;3658;47.992;10.158;2023-03-01T02:32:31;3.73;;;3.43;;
7233;SDS011;3658;47.992;10.158;2023-03-01T02:34:57;3.97;;;3.60;;
7233;SDS011;3658;47.992;10.158;2023-03-01T02:37:24;4.03;;;3.60;;
7233;SDS011;3658;47.992;10.158;2023-03-01T02:39:54;3.93;;;3.50;;
7233;SDS011;3658;47.992;10.158;2023-03-01T02:42:26;4.43;;;3.43;;
7233;SDS011;3658;47.992;10.158;2023-03-01T02:44:56;4.40;;;4.00;;
7233;SDS011;3658;47.992;10.158;2023-03-01T02:47:25;3.90;;;3.50;;
7233;SDS011;3658;47.992;10.158;2023-03-01T02:49:52;6.77;;;3.63;;
7233;SDS011;3658;47.992;10.158;2023-03-01T02:52:26;4.20;;;3.80;;
7233;SDS011;3658;47.992;10.158;2023-03-01T02:55:03;3.83;;;3.47;;
7233;SDS011;3658;47.992;10.158;2023-03-01T02:57:35;3.57;;;3.27;;
7233;SDS011;3658;47.992;10.158;2023-03-01T03:00:05;3.80;;;3.40;;
7233;SDS011;3658;47.992;10.158;2023-03-01T03:02:45;3.93;;;3.30;;
7233;SDS011;3658;47.992;10.158;2023-03-01T03:05:13;3.70;;;3.40;;
7233;SDS011;3658;47.992;10.158;2023-03-01T03:07:42;3.60;;;3.30;;
7233;SDS011;3658;47.992;10.158;2023-03-01T03:10:12;3.83;;;3.43;;
7233;SDS011;3658;47.992;10.158;2023-03-01T03:12:40;3.53;;;3.23;;
7233;SDS011;3658;47.992;10.158;2023-03-01T03:15:09;4.10;;;3.60;;
7233;SDS011;3658;47.992;10.158;2023-03-01T03:17:38;3.77;;;3.47;;
7233;SDS011;3658;47.992;10.158;2023-03-01T03:20:09;4.03;;;3.63;;
7233;SDS011;3658;47.992;10.158;2023-03-01T03:22:43;3.93;;;3.53;;
7233;SDS011;3658;47.992;10.158;2023-03-01T03:25:11;4.20;;;3.80;;
7233;SDS011;3658;47.992;10.158;2023-03-01T03:27:39;3.53;;;3.20;;
7233;SDS011;3658;47.992;10.158;2023-03-01T03:30:10;3.83;;;3.50;;
7233;SDS011;3658;47.992;10.158;2023-03-01T03:32:39;3.90;;;3.50;;
7233;SDS011;3658;47.992;10.158;2023-03-01T03:35:09;3.90;;;3.50;;
7233;SDS011;3658;47.992;10.158;2023-03-01T03:37:36;4.37;;;3.23;;
7233;SDS011;3658;47.992;10.158;2023-03-01T03:40:21;4.47;;;3.17;;
7233;SDS011;3658;47.992;10.158;2023-03-01T03:42:48;5.03;;;3.50;;
7233;SDS011;3658;47.992;10.158;2023-03-01T03:45:15;3.70;;;3.40;;
7233;SDS011;3658;47.992;10.158;2023-03-01T03:47:43;3.77;;;3.33;;
7233;SDS011;3658;47.992;10.158;2023-03-01T03:50:12;3.63;;;3.20;;
7233;SDS011;3658;47.992;10.158;2023-03-01T03:52:40;3.80;;;3.50;;
7233;SDS011;3658;47.992;10.158;2023-03-01T03:55:08;4.37;;;3.37;;
7233;SDS011;3658;47.992;10.158;2023-03-01T03:57:37;4.00;;;3.40;;
7233;SDS011;3658;47.992;10.158;2023-03-01T04:00:05;3.77;;;3.27;;
7233;SDS011;3658;47.992;10.158;2023-03-01T04:02:37;3.50;;;3.20;;
7233;SDS011;3658;47.992;10.158;2023-03-01T04:05:05;4.23;;;3.70;;
7233;SDS011;3658;47.992;10.158;2023-03-01T04:07:35;3.50;;;3.20;;
7233;SDS011;3658;47.992;10.158;2023-03-01T04:10:03;4.20;;;3.80;;
7233;SDS011;3658;47.992;10.158;2023-03-01T04:12:31;3.80;;;3.37;;
7233;SDS011;3658;47.992;10.158;2023-03-01T04:14:59;3.67;;;3.37;;
7233;SDS011;3658;47.992;10.158;2023-03-01T04:17:26;4.00;;;3.60;;
7233;SDS011;3658;47.992;10.158;2023-03-01T04:19:53;4.50;;;3.73;;
7233;SDS011;3658;47.992;10.158;2023-03-01T04:22:20;5.17;;;3.70;;
7233;SDS011;3658;47.992;10.158;2023-03-01T04:24:48;4.20;;;3.70;;
7233;SDS011;3658;47.992;10.158;2023-03-01T04:27:15;4.00;;;3.30;;
7233;SDS011;3658;47.992;10.158;2023-03-01T04:29:42;4.20;;;3.63;;
7233;SDS011;3658;47.992;10.158;2023-03-01T04:32:09;3.60;;;3.30;;
7233;SDS011;3658;47.992;10.158;2023-03-01T04:34:36;4.37;;;3.70;;
7233;SDS011;3658;47.992;10.158;2023-03-01T04:37:03;3.93;;;3.57;;
7233;SDS011;3658;47.992;10.158;2023-03-01T04:39:31;3.87;;;3.57;;
7233;SDS011;3658;47.992;10.158;2023-03-01T04:41:59;3.70;;;3.40;;
7233;SDS011;3658;47.992;10.158;2023-03-01T04:44:26;4.23;;;3.53;;
7233;SDS011;3658;47.992;10.158;2023-03-01T04:46:53;3.70;;;3.30;;
7233;SDS011;3658;47.992;10.158;2023-03-01T04:49:20;3.47;;;3.17;;
7233;SDS011;3658;47.992;10.158;2023-03-01T04:51:47;4.27;;;3.30;;
7233;SDS011;3658;47.992;10.158;2023-03-01T04:54:14;4.00;;;3.43;;
7233;SDS011;3658;47.992;10.158;2023-03-01T04:56:41;4.33;;;3.53;;
7233;SDS011;3658;47.992;10.158;2023-03-01T04:59:09;3.70;;;3.37;;
7233;SDS011;3658;47.992;10.158;2023-03-01T05:01:37;4.67;;;3.47;;
7233;SDS011;3658;47.992;10.158;2023-03-01T05:04:07;3.83;;;3.53;;
7233;SDS011;3658;47.992;10.158;2023-03-01T05:06:38;3.80;;;3.40;;
7233;SDS011;3658;47.992;10.158;2023-03-01T05:09:05;3.80;;;3.50;;
7233;SDS011;3658;47.992;10.158;2023-03-01T05:11:33;4.30;;;3.90;;
7233;SDS011;3658;47.992;10.158;2023-03-01T05:14:01;4.50;;;3.60;;
7233;SDS011;3658;47.992;10.158;2023-03-01T05:16:29;3.90;;;3.60;;
7233;SDS011;3658;47.992;10.158;2023-03-01T05:18:57;3.90;;;3.20;;
7233;SDS011;3658;47.992;10.158;2023-03-01T05:21:24;4.10;;;3.70;;
7233;SDS011;3658;47.992;10.158;2023-03-01T05:23:51;7.03;;;3.60;;
7233;SDS011;3658;47.992;10.158;2023-03-01T05:26:19;3.30;;;3.00;;
7233;SDS011;3658;47.992;10.158;2023-03-01T05:28:52;3.63;;;3.10;;
7233;SDS011;3658;47.992;10.158;2023-03-01T05:31:23;7.47;;;3.40;;
7233;SDS011;3658;47.992;10.158;2023-03-01T05:33:51;2.80;;;2.60;;
7233;SDS011;3658;47.992;10.158;2023-03-01T05:36:18;5.43;;;3.10;;
7233;SDS011;3658;47.992;10.158;2023-03-01T05:38:45;3.10;;;2.80;;
7233;SDS011;3658;47.992;10.158;2023-03-01T05:41:14;3.60;;;2.90;;
7233;SDS011;3658;47.992;10.158;2023-03-01T05:43:42;3.13;;;2.83;;
7233;SDS011;3658;47.992;10.158;2023-03-01T05:46:09;3.60;;;3.00;;
7233;SDS011;3658;47.992;10.158;2023-03-01T05:48:38;3.80;;;2.90;;
7233;SDS011;3658;47.992;10.158;2023-03-01T05:51:06;6.50;;;2.77;;
7233;SDS011;3658;47.992;10.158;2023-03-01T05:53:34;3.17;;;2.87;;
7233;SDS011;3658;47.992;10.158;2023-03-01T05:56:03;4.43;;;2.73;;
7233;SDS011;3658;47.992;10.158;2023-03-01T05:58:31;6.03;;;2.70;;
7233;SDS011;3658;47.992;10.158;2023-03-01T06:00:58;5.60;;;2.87;;
7233;SDS011;3658;47.992;10.158;2023-03-01T06:03:25;3.27;;;2.70;;
7233;SDS011;3658;47.992;10.158;2023-03-01T06:05:55;3.10;;;2.77;;
7233;SDS011;3658;47.992;10.158;2023-03-01T06:08:23;3.33;;;2.43;;
7233;SDS011;3658;47.992;10.158;2023-03-01T06:10:52;3.10;;;2.80;;
7233;SDS011;3658;47.992;10.158;2023-03-01T06:13:19;4.77;;;2.97;;
7233;SDS011;3658;47.992;10.158;2023-03-01T06:15:46;3.07;;;2.77;;
7233;SDS011;3658;47.992;10.158;2023-03-01T06:18:13;4.13;;;2.70;;
7233;SDS011;3658;47.992;10.158;2023-03-01T06:20:39;2.77;;;2.50;;
7233;SDS011;3658;47.992;10.158;2023-03-01T06:23:06;4.77;;;2.80;;
7233;SDS011;3658;47.992;10.158;2023-03-01T06:25:35;3.40;;;2.80;;
7233;SDS011;3658;47.992;10.158;2023-03-01T06:28:03;3.43;;;2.70;;
7233;SDS011;3658;47.992;10.158;2023-03-01T06:30:30;3.80;;;2.93;;
7233;SDS011;3658;47.992;10.158;2023-03-01T06:32:57;3.03;;;2.53;;
7233;SDS011;3658;47.992;10.158;2023-03-01T06:35:26;3.67;;;2.90;;
7233;SDS011;3658;47.992;10.158;2023-03-01T06:37:54;2.97;;;2.70;;
7233;SDS011;3658;47.992;10.158;2023-03-01T06:40:22;7.57;;;3.10;;
7233;SDS011;3658;47.992;10.158;2023-03-01T06:42:51;3.07;;;2.77;;
7233;SDS011;3658;47.992;10.158;2023-03-01T06:45:19;3.93;;;2.70;;
7233;SDS011;3658;47.992;10.158;2023-03-01T06:47:47;3.10;;;2.80;;
7233;SDS011;3658;47.992;10.158;2023-03-01T06:50:17;8.03;;;2.87;;
7233;SDS011;3658;47.992;10.158;2023-03-01T06:52:45;5.93;;;2.90;;
7233;SDS011;3658;47.992;10.158;2023-03-01T06:55:13;6.10;;;2.83;;
7233;SDS011;3658;47.992;10.158;2023-03-01T06:57:40;7.17;;;3.37;;
7233;SDS011;3658;47.992;10.158;2023-03-01T07:00:09;12.43;;;3.70;;
7233;SDS011;3658;47.992;10.158;2023-03-01T07:02:37;11.13;;;4.00;;
7233;SDS011;3658;47.992;10.158;2023-03-01T07:05:04;14.70;;;4.17;;
7233;SDS011;3658;47.992;10.158;2023-03-01T07:07:32;9.30;;;4.13;;
7233;SDS011;3658;47.992;10.158;2023-03-01T07:09:58;9.47;;;3.80;;
7233;SDS011;3658;47.992;10.158;2023-03-01T07:12:25;10.53;;;4.90;;
7233;SDS011;3658;47.992;10.158;2023-03-01T07:14:52;10.57;;;3.70;;
7233;SDS011;3658;47.992;10.158;2023-03-01T07:17:21;10.47;;;3.67;;
7233;SDS011;3658;47.992;10.158;2023-03-01T07:19:48;12.50;;;3.63;;
7233;SDS011;3658;47.992;10.158;2023-03-01T07:22:15;11.20;;;4.13;;
7233;SDS011;3658;47.992;10.158;2023-03-01T07:24:41;9.33;;;4.03;;
7233;SDS011;3658;47.992;10.158;2023-03-01T07:27:09;6.37;;;3.60;;
7233;SDS011;3658;47.992;10.158;2023-03-01T07:29:36;7.67;;;3.57;;
7233;SDS011;3658;47.992;10.158;2023-03-01T07:32:03;5.50;;;4.07;;
7233;SDS011;3658;47.992;10.158;2023-03-01T07:34:32;6.73;;;3.23;;
7233;SDS011;3658;47.992;10.158;2023-03-01T07:36:59;5.23;;;3.90;;
7233;SDS011;3658;47.992;10.158;2023-03-01T07:39:26;7.53;;;3.67;;
7233;SDS011;3658;47.992;10.158;2023-03-01T07:41:53;7.57;;;4.10;;
7233;SDS011;3658;47.992;10.158;2023-03-01T07:44:20;7.87;;;3.40;;
7233;SDS011;3658;47.992;10.158;2023-03-01T07:46:47;8.27;;;4.17;;
7233;SDS011;3658;47.992;10.158;2023-03-01T07:49:14;7.10;;;4.33;;
7233;SDS011;3658;47.992;10.158;2023-03-01T07:51:44;8.63;;;3.50;;
7233;SDS011;3658;47.992;10.158;2023-03-01T07:54:10;7.10;;;4.07;;
7233;SDS011;3658;47.992;10.158;2023-03-01T07:56:37;5.53;;;4.00;;
7233;SDS011;3658;47.992;10.158;2023-03-01T07:59:05;5.57;;;3.73;;
7233;SDS011;3658;47.992;10.158;2023-03-01T08:01:32;4.23;;;3.23;;
7233;SDS011;3658;47.992;10.158;2023-03-01T08:03:59;5.20;;;3.40;;
7233;SDS011;3658;47.992;10.158;2023-03-01T08:06:26;4.90;;;3.40;;
7233;SDS011;3658;47.992;10.158;2023-03-01T08:08:55;3.97;;;3.37;;
7233;SDS011;3658;47.992;10.158;2023-03-01T08:11:23;4.43;;;3.30;;
7233;SDS011;3658;47.992;10.158;2023-03-01T08:13:50;5.83;;;3.70;;
7233;SDS011;3658;47.992;10.158;2023-03-01T08:16:17;6.47;;;3.53;;
7233;SDS011;3658;47.992;10.158;2023-03-01T08:18:44;5.83;;;3.07;;
7233;SDS011;3658;47.992;10.158;2023-03-01T08:21:11;3.83;;;3.43;;
7233;SDS011;3658;47.992;10.158;2023-03-01T08:26:55;3.77;;;3.37;;
7233;SDS011;3658;47.992;10.158;2023-03-01T08:29:23;5.27;;;3.57;;
7233;SDS011;3658;47.992;10.158;2023-03-01T08:31:50;6.03;;;3.60;;
7233;SDS011;3658;47.992;10.158;2023-03-01T08:34:17;4.83;;;3.47;;
7233;SDS011;3658;47.992;10.158;2023-03-01T08:36:45;4.97;;;3.43;;
7233;SDS011;3658;47.992;10.158;2023-03-01T08:39:13;4.33;;;3.20;;
7233;SDS011;3658;47.992;10.158;2023-03-01T08:41:41;3.50;;;3.20;;
7233;SDS011;3658;47.992;10.158;2023-03-01T08:44:10;3.50;;;3.03;;
7233;SDS011;3658;47.992;10.158;2023-03-01T08:46:41;5.77;;;3.90;;
7233;SDS011;3658;47.992;10.158;2023-03-01T08:49:11;3.70;;;3.13;;
7233;SDS011;3658;47.992;10.158;2023-03-01T08:51:39;3.97;;;3.27;;
7233;SDS011;3658;47.992;10.158;2023-03-01T08:54:07;4.63;;;3.50;;
7233;SDS011;3658;47.992;10.158;2023-03-01T08:56:37;4.50;;;3.50;;
7233;SDS011;3658;47.992;10.158;2023-03-01T08:59:05;4.00;;;3.13;;
7233;SDS011;3658;47.992;10.158;2023-03-01T09:01:34;6.47;;;3.33;;
7233;SDS011;3658;47.992;10.158;2023-03-01T09:04:02;4.33;;;3.40;;
7233;SDS011;3658;47.992;10.158;2023-03-01T09:06:30;3.70;;;3.20;;
7233;SDS011;3658;47.992;10.158;2023-03-01T09:08:58;3.83;;;3.53;;
7233;SDS011;3658;47.992;10.158;2023-03-01T09:11:25;4.53;;;3.43;;
7233;SDS011;3658;47.992;10.158;2023-03-01T09:13:52;4.93;;;3.67;;
7233;SDS011;3658;47.992;10.158;2023-03-01T09:16:20;3.37;;;3.07;;
7233;SDS011;3658;47.992;10.158;2023-03-01T09:18:50;3.60;;;3.10;;
7233;SDS011;3658;47.992;10.158;2023-03-01T09:21:18;4.37;;;3.43;;
7233;SDS011;3658;47.992;10.158;2023-03-01T09:23:48;4.47;;;3.13;;
7233;SDS011;3658;47.992;10.158;2023-03-01T09:26:15;4.10;;;3.70;;
7233;SDS011;3658;47.992;10.158;2023-03-01T09:28:46;3.60;;;3.23;;
7233;SDS011;3658;47.992;10.158;2023-03-01T09:31:14;3.80;;;3.40;;
7233;SDS011;3658;47.992;10.158;2023-03-01T09:33:42;3.63;;;3.23;;
7233;SDS011;3658;47.992;10.158;2023-03-01T09:36:13;3.57;;;3.27;;
7233;SDS011;3658;47.992;10.158;2023-03-01T09:38:42;3.47;;;3.17;;
7233;SDS011;3658;47.992;10.158;2023-03-01T09:41:09;3.50;;;3.20;;
7233;SDS011;3658;47.992;10.158;2023-03-01T09:43:46;3.30;;;3.00;;
7233;SDS011;3658;47.992;10.158;2023-03-01T09:46:19;4.20;;;3.80;;
7233;SDS011;3658;47.992;10.158;2023-03-01T09:48:50;3.97;;;3.40;;
7233;SDS011;3658;47.992;10.158;2023-03-01T09:51:22;3.60;;;3.30;;
7233;SDS011;3658;47.992;10.158;2023-03-01T09:53:53;3.33;;;3.03;;
7233;SDS011;3658;47.992;10.158;2023-03-01T09:56:22;3.53;;;3.23;;
7233;SDS011;3658;47.992;10.158;2023-03-01T09:58:57;3.67;;;3.10;;
7233;SDS011;3658;47.992;10.158;2023-03-01T10:01:34;3.07;;;2.77;;
7233;SDS011;3658;47.992;10.158;2023-03-01T10:04:09;3.57;;;3.27;;
7233;SDS011;3658;47.992;10.158;2023-03-01T10:06:49;4.10;;;3.20;;
7233;SDS011;3658;47.992;10.158;2023-03-01T10:09:21;3.60;;;3.30;;
7233;SDS011;3658;47.992;10.158;2023-03-01T10:11:48;3.40;;;3.10;;
7233;SDS011;3658;47.992;10.158;2023-03-01T10:14:22;3.63;;;3.33;;
7233;SDS011;3658;47.992;10.158;2023-03-01T10:16:57;3.50;;;3.10;;
7233;SDS011;3658;47.992;10.158;2023-03-01T10:19:29;3.73;;;3.20;;
7233;SDS011;3658;47.992;10.158;2023-03-01T10:22:02;3.97;;;3.57;;
7233;SDS011;3658;47.992;10.158;2023-03-01T10:24:32;3.83;;;3.40;;
7233;SDS011;3658;47.992;10.158;2023-03-01T10:27:02;4.00;;;3.60;;
7233;SDS011;3658;47.992;10.158;2023-03-01T10:29:34;3.70;;;3.30;;
7233;SDS011;3658;47.992;10.158;2023-03-01T10:32:09;3.23;;;2.93;;
7233;SDS011;3658;47.992;10.158;2023-03-01T10:34:37;4.10;;;3.40;;
7233;SDS011;3658;47.992;10.158;2023-03-01T10:37:10;3.90;;;3.50;;
7233;SDS011;3658;47.992;10.158;2023-03-01T10:39:54;3.77;;;3.47;;
7233;SDS011;3658;47.992;10.158;2023-03-01T10:42:25;4.13;;;3.63;;
7233;SDS011;3658;47.992;10.158;2023-03-01T10:44:55;4.00;;;3.40;;
7233;SDS011;3658;47.992;10.158;2023-03-01T10:47:22;3.70;;;3.40;;
7233;SDS011;3658;47.992;10.158;2023-03-01T10:49:51;3.70;;;3.30;;
7233;SDS011;3658;47.992;10.158;2023-03-01T10:52:24;3.60;;;3.30;;
7233;SDS011;3658;47.992;10.158;2023-03-01T10:54:55;3.90;;;3.57;;
7233;SDS011;3658;47.992;10.158;2023-03-01T11:03:02;3.50;;;3.00;;
7233;SDS011;3658;47.992;10.158;2023-03-01T11:05:37;3.43;;;3.00;;
7233;SDS011;3658;47.992;10.158;2023-03-01T11:08:30;3.47;;;3.17;;
7233;SDS011;3658;47.992;10.158;2023-03-01T11:11:09;3.27;;;2.90;;
7233;SDS011;3658;47.992;10.158;2023-03-01T11:13:50;3.83;;;3.33;;
7233;SDS011;3658;47.992;10.158;2023-03-01T11:16:29;3.53;;;3.23;;
7233;SDS011;3658;47.992;10.158;2023-03-01T11:19:18;3.40;;;3.10;;
7233;SDS011;3658;47.992;10.158;2023-03-01T11:24:37;3.57;;;3.27;;
7233;SDS011;3658;47.992;10.158;2023-03-01T11:27:08;3.60;;;3.30;;
7233;SDS011;3658;47.992;10.158;2023-03-01T11:29:45;3.50;;;3.20;;
7233;SDS011;3658;47.992;10.158;2023-03-01T11:32:16;3.87;;;3.50;;
7233;SDS011;3658;47.992;10.158;2023-03-01T11:34:44;3.40;;;3.10;;
7233;SDS011;3658;47.992;10.158;2023-03-01T11:37:19;3.40;;;3.10;;
7233;SDS011;3658;47.992;10.158;2023-03-01T11:39:58;3.67;;;3.37;;
7233;SDS011;3658;47.992;10.158;2023-03-01T11:42:33;3.53;;;3.23;;
7233;SDS011;3658;47.992;10.158;2023-03-01T11:45:08;4.00;;;3.60;;
7233;SDS011;3658;47.992;10.158;2023-03-01T11:47:55;3.73;;;3.37;;
7233;SDS011;3658;47.992;10.158;2023-03-01T11:50:35;3.80;;;3.27;;
7233;SDS011;3658;47.992;10.158;2023-03-01T11:56:08;3.47;;;3.17;;
7233;SDS011;3658;47.992;10.158;2023-03-01T11:58:45;4.67;;;3.37;;
7233;SDS011;3658;47.992;10.158;2023-03-01T12:01:26;3.20;;;2.90;;
7233;SDS011;3658;47.992;10.158;2023-03-01T12:04:27;3.73;;;3.30;;
7233;SDS011;3658;47.992;10.158;2023-03-01T12:07:14;4.10;;;3.73;;
7233;SDS011;3658;47.992;10.158;2023-03-01T12:10:10;3.90;;;3.50;;
7233;SDS011;3658;47.992;10.158;2023-03-01T12:13:05;3.77;;;3.27;;
7233;SDS011;3658;47.992;10.158;2023-03-01T12:18:48;4.20;;;3.80;;
7233;SDS011;3658;47.992;10.158;2023-03-01T12:21:28;3.50;;;3.20;;
7233;SDS011;3658;47.992;10.158;2023-03-01T12:27:05;3.60;;;3.30;;
7233;SDS011;3658;47.992;10.158;2023-03-01T12:29:50;3.70;;;3.37;;
7233;SDS011;3658;47.992;10.158;2023-03-01T12:32:26;3.60;;;3.20;;
7233;SDS011;3658;47.992;10.158;2023-03-01T12:35:11;4.17;;;3.77;;
7233;SDS011;3658;47.992;10.158;2023-03-01T12:37:56;3.80;;;3.50;;
7233;SDS011;3658;47.992;10.158;2023-03-01T12:40:42;3.37;;;3.07;;
7233;SDS011;3658;47.992;10.158;2023-03-01T12:43:23;3.30;;;3.00;;
7233;SDS011;3658;47.992;10.158;2023-03-01T12:48:49;3.90;;;3.50;;
7233;SDS011;3658;47.992;10.158;2023-03-01T12:51:24;3.60;;;3.30;;
7233;SDS011;3658;47.992;10.158;2023-03-01T12:53:54;4.27;;;3.87;;
7233;SDS011;3658;47.992;10.158;2023-03-01T12:56:24;3.50;;;3.20;;
7233;SDS011;3658;47.992;10.158;2023-03-01T12:58:56;3.73;;;3.40;;
7233;SDS011;3658;47.992;10.158;2023-03-01T13:01:33;3.93;;;3.63;;
7233;SDS011;3658;47.992;10.158;2023-03-01T13:04:31;4.63;;;4.13;;
7233;SDS011;3658;47.992;10.158;2023-03-01T13:07:21;3.83;;;3.50;;
7233;SDS011;3658;47.992;10.158;2023-03-01T13:09:55;4.17;;;3.77;;
7233;SDS011;3658;47.992;10.158;2023-03-01T13:12:51;3.97;;;3.57;;
7233;SDS011;3658;47.992;10.158;2023-03-01T13:15:32;4.47;;;3.60;;
7233;SDS011;3658;47.992;10.158;2023-03-01T13:18:03;3.87;;;3.57;;
7233;SDS011;3658;47.992;10.158;2023-03-01T13:20:51;3.97;;;3.30;;
7233;SDS011;3658;47.992;10.158;2023-03-01T13:23:27;3.93;;;3.53;;
7233;SDS011;3658;47.992;10.158;2023-03-01T13:26:00;3.73;;;3.30;;
7233;SDS011;3658;47.992;10.158;2023-03-01T13:28:36;4.20;;;3.80;;
7233;SDS011;3658;47.992;10.158;2023-03-01T13:34:55;4.07;;;3.70;;
7233;SDS011;3658;47.992;10.158;2023-03-01T13:37:27;3.67;;;3.37;;
7233;SDS011;3658;47.992;10.158;2023-03-01T13:40:00;3.93;;;3.53;;
7233;SDS011;3658;47.992;10.158;2023-03-01T13:42:31;4.30;;;3.90;;
7233;SDS011;3658;47.992;10.158;2023-03-01T13:45:04;5.10;;;3.93;;
7233;SDS011;3658;47.992;10.158;2023-03-01T13:47:42;5.10;;;3.97;;
7233;SDS011;3658;47.992;10.158;2023-03-01T13:50:18;4.07;;;3.67;;
7233;SDS011;3658;47.992;10.158;2023-03-01T13:52:48;4.33;;;3.70;;
7233;SDS011;3658;47.992;10.158;2023-03-01T13:55:21;4.17;;;3.77;;
7233;SDS011;3658;47.992;10.158;2023-03-01T13:57:53;3.30;;;3.00;;
7233;SDS011;3658;47.992;10.158;2023-03-01T14:00:27;5.13;;;3.47;;
7233;SDS011;3658;47.992;10.158;2023-03-01T14:03:02;3.43;;;3.13;;
7233;SDS011;3658;47.992;10.158;2023-03-01T14:05:38;3.60;;;3.30;;
7233;SDS011;3658;47.992;10.158;2023-03-01T14:08:17;3.70;;;3.30;;
7233;SDS011;3658;47.992;10.158;2023-03-01T14:14:04;3.57;;;3.27;;
7233;SDS011;3658;47.992;10.158;2023-03-01T14:16:44;3.93;;;3.53;;
7233;SDS011;3658;47.992;10.158;2023-03-01T14:19:18;4.83;;;3.80;;
7233;SDS011;3658;47.992;10.158;2023-03-01T14:21:59;3.90;;;3.50;;
7233;SDS011;3658;47.992;10.158;2023-03-01T14:24:28;3.73;;;3.43;;
7233;SDS011;3658;47.992;10.158;2023-03-01T14:26:59;4.00;;;3.63;;
7233;SDS011;3658;47.992;10.158;2023-03-01T14:29:28;3.83;;;3.43;;
7233;SDS011;3658;47.992;10.158;2023-03-01T14:32:08;4.30;;;3.77;;
7233;SDS011;3658;47.992;10.158;2023-03-01T14:34:38;4.30;;;3.90;;
7233;SDS011;3658;47.992;10.158;2023-03-01T14:37:11;4.03;;;3.60;;
7233;SDS011;3658;47.992;10.158;2023-03-01T14:39:46;3.73;;;3.43;;
7233;SDS011;3658;47.992;10.158;2023-03-01T14:42:13;3.77;;;3.47;;
7233;SDS011;3658;47.992;10.158;2023-03-01T14:44:45;4.10;;;3.70;;
7233;SDS011;3658;47.992;10.158;2023-03-01T14:47:15;3.23;;;3.03;;
7233;SDS011;3658;47.992;10.158;2023-03-01T14:49:49;4.20;;;3.63;;
7233;SDS011;3658;47.992;10.158;2023-03-01T14:52:25;4.30;;;3.90;;
7233;SDS011;3658;47.992;10.158;2023-03-01T14:54:59;4.53;;;3.63;;
7233;SDS011;3658;47.992;10.158;2023-03-01T14:57:28;3.40;;;3.10;;
7233;SDS011;3658;47.992;10.158;2023-03-01T14:59:57;3.80;;;3.50;;
7233;SDS011;3658;47.992;10.158;2023-03-01T15:02:29;3.50;;;3.20;;
7233;SDS011;3658;47.992;10.158;2023-03-01T15:04:58;3.97;;;3.57;;
7233;SDS011;3658;47.992;10.158;2023-03-01T15:07:31;4.00;;;3.60;;
7233;SDS011;3658;47.992;10.158;2023-03-01T15:10:02;4.00;;;3.60;;
7233;SDS011;3658;47.992;10.158;2023-03-01T15:12:35;4.10;;;3.60;;
7233;SDS011;3658;47.992;10.158;2023-03-01T15:15:30;3.77;;;3.37;;
7233;SDS011;3658;47.992;10.158;2023-03-01T15:17:59;3.90;;;3.50;;
7233;SDS011;3658;47.992;10.158;2023-03-01T15:20:29;3.97;;;3.57;;
7233;SDS011;3658;47.992;10.158;2023-03-01T15:23:01;3.73;;;3.43;;
7233;SDS011;3658;47.992;10.158;2023-03-01T15:25:29;3.93;;;3.53;;
7233;SDS011;3658;47.992;10.158;2023-03-01T15:27:58;4.17;;;3.63;;
7233;SDS011;3658;47.992;10.158;2023-03-01T15:30:27;4.63;;;3.77;;
7233;SDS011;3658;47.992;10.158;2023-03-01T15:35:47;4.13;;;3.73;;
7233;SDS011;3658;47.992;10.158;2023-03-01T15:38:30;3.97;;;3.53;;
7233;SDS011;3658;47.992;10.158;2023-03-01T15:41:00;4.10;;;3.70;;
7233;SDS011;3658;47.992;10.158;2023-03-01T15:43:39;3.77;;;3.43;;
7233;SDS011;3658;47.992;10.158;2023-03-01T15:48:56;3.53;;;3.23;;
7233;SDS011;3658;47.992;10.158;2023-03-01T15:51:27;4.83;;;3.50;;
7233;SDS011;3658;47.992;10.158;2023-03-01T15:54:02;4.00;;;3.60;;
7233;SDS011;3658;47.992;10.158;2023-03-01T15:56:31;3.50;;;3.20;;
7233;SDS011;3658;47.992;10.158;2023-03-01T15:58:59;4.23;;;3.60;;